Rumpus Ridge, South Dakota
Current Conditions -  °F | °C
As of 8:44 PM on Wednesday 22 Oct 2014 (Local Time) from KFSD Reporting Station
Haze Haze  
Wind Chill: 56°   Ceiling: 400
Heat Index: 56°   Visibility: 3mi
Dew Point: 55°   Wind: 7mph
Humidity: 97%   Direction: 270°W
Pressure: 30"   Gusts: NA
Location:  43.5855°N, 97.3085°W
Report Text: KFSD 230144Z 27006KT 3SM BR OVC004 13/13 A3000 RMK AO2 SFC VIS 6 VIS S 3 T01330128
Loading
Personal Weather Stations






























Interactive Weather Map
Tropical Storm Tracking
New forecast layout! Learn more

10-Day Weather Forecast

Advertisements
Track Severe Weather on mobile